Time;durP1;ratioP1;P1;durP2;ratioP2;P2;SDS_P1;SDS_P2;PMS_P1;PMS_P2;Temp;Humidity;BMP_temperature;BMP_pressure;BME280_temperature;BME280_humidity;BME280_pressure;Samples;Min_cycle;Max_cycle;Signal;HPM_P1;HPM_P2
2023/03/29 00:00:36;;;;;;;4.17;2.00;;;3.80;99.90;;;;;;7718072;28;20311;-85
2023/03/29 00:04:22;;;;;;;3.80;1.80;;;3.80;99.90;;;;;;7728309;28;20184;-85
2023/03/29 00:08:07;;;;;;;2.73;1.60;;;3.90;99.90;;;;;;7722351;28;20217;-85
2023/03/29 00:11:53;;;;;;;5.60;1.70;;;3.80;99.90;;;;;;7715155;28;20331;-86
2023/03/29 00:15:40;;;;;;;4.90;1.90;;;3.70;99.90;;;;;;7715634;28;20594;-85
2023/03/29 00:19:27;;;;;;;4.63;1.87;;;3.80;99.90;;;;;;7714435;28;20231;-86
2023/03/29 00:23:13;;;;;;;7.70;2.33;;;3.80;99.90;;;;;;7708842;28;20220;-87
2023/03/29 00:26:59;;;;;;;5.20;2.53;;;3.80;99.90;;;;;;7720530;28;20200;-86
2023/03/29 00:30:45;;;;;;;5.80;2.60;;;3.70;99.90;;;;;;7726064;28;20270;-86
2023/03/29 00:34:30;;;;;;;5.27;2.40;;;3.70;99.90;;;;;;7740434;28;20185;-84
2023/03/29 00:38:16;;;;;;;7.13;2.50;;;3.70;99.90;;;;;;7739018;28;20225;-85
2023/03/29 00:42:02;;;;;;;6.40;1.90;;;3.70;99.90;;;;;;7726973;28;20219;-85
2023/03/29 00:45:48;;;;;;;7.10;2.37;;;3.70;99.90;;;;;;7731074;28;20200;-84
2023/03/29 00:49:34;;;;;;;5.73;2.23;;;3.70;99.90;;;;;;7723287;28;20556;-85
2023/03/29 00:53:29;;;;;;;7.60;2.17;;;3.60;99.90;;;;;;7743360;28;20710;-85
2023/03/29 00:57:19;;;;;;;7.90;2.07;;;3.60;99.90;;;;;;7726080;28;20212;-85
2023/03/29 01:01:14;;;;;;;5.17;1.80;;;3.60;99.90;;;;;;7724947;28;20366;-86
2023/03/29 01:05:08;;;;;;;6.20;2.10;;;3.70;99.90;;;;;;7732455;28;20200;-84
2023/03/29 01:08:58;;;;;;;6.50;2.20;;;3.60;99.90;;;;;;7720283;28;20203;-86
2023/03/29 01:12:52;;;;;;;4.53;2.03;;;3.60;99.90;;;;;;7723983;28;20217;-85
2023/03/29 01:16:38;;;;;;;6.30;1.90;;;3.50;99.90;;;;;;7716054;28;20224;-85
2023/03/29 01:20:49;;;;;;;4.27;1.83;;;3.50;99.90;;;;;;7723538;28;20273;-86
2023/03/29 01:24:42;;;;;;;5.33;2.20;;;3.50;99.90;;;;;;7735993;28;20200;-85
2023/03/29 01:28:34;;;;;;;3.37;2.00;;;3.50;99.90;;;;;;7726154;28;20200;-85
2023/03/29 01:32:36;;;;;;;6.27;2.13;;;3.50;99.90;;;;;;7721885;28;20224;-85
2023/03/29 01:36:28;;;;;;;5.93;2.57;;;3.40;99.90;;;;;;7723158;28;20200;-87
2023/03/29 01:40:14;;;;;;;9.30;2.10;;;3.40;99.90;;;;;;7725238;28;20209;-85
2023/03/29 01:44:14;;;;;;;7.00;1.97;;;3.40;99.90;;;;;;7726041;28;20336;-86
2023/03/29 01:48:17;;;;;;;4.20;1.57;;;3.40;99.90;;;;;;7726092;28;20189;-86
2023/03/29 01:52:38;;;;;;;6.57;2.07;;;3.40;99.90;;;;;;7725197;28;20469;-85
2023/03/29 01:56:28;;;;;;;3.83;1.80;;;3.30;99.90;;;;;;7661004;29;20257;-85
2023/03/29 02:00:18;;;;;;;6.57;2.47;;;3.40;99.90;;;;;;7661067;29;20720;-85
2023/03/29 02:04:09;;;;;;;8.20;2.30;;;3.30;99.90;;;;;;7646970;29;20256;-85
2023/03/29 02:07:56;;;;;;;4.43;2.30;;;3.20;99.90;;;;;;7645776;29;20205;-85
2023/03/29 02:11:43;;;;;;;5.83;2.43;;;3.20;99.90;;;;;;7644750;29;20225;-85
2023/03/29 02:15:29;;;;;;;6.73;3.23;;;3.20;99.90;;;;;;7641853;29;20337;-85
2023/03/29 02:19:16;;;;;;;5.00;2.50;;;3.20;99.90;;;;;;7646890;29;20275;-85
2023/03/29 02:23:08;;;;;;;10.13;2.63;;;3.20;99.90;;;;;;7659547;29;20226;-85
2023/03/29 02:26:54;;;;;;;6.40;2.70;;;3.20;99.90;;;;;;7644625;29;20209;-85
2023/03/29 02:30:52;;;;;;;4.83;2.67;;;3.10;99.90;;;;;;7676765;28;20212;-84
2023/03/29 02:34:49;;;;;;;6.23;2.50;;;3.30;99.90;;;;;;7716825;28;20259;-84
2023/03/29 02:38:37;;;;;;;10.27;3.00;;;3.10;99.90;;;;;;7726180;28;20223;-84
2023/03/29 02:42:25;;;;;;;5.67;2.43;;;3.10;99.90;;;;;;7711477;28;20269;-85
2023/03/29 02:46:12;;;;;;;8.13;2.60;;;3.10;99.90;;;;;;7720607;28;20196;-86
2023/03/29 02:49:58;;;;;;;6.57;2.20;;;3.10;99.90;;;;;;7720528;28;20208;-86
2023/03/29 02:53:50;;;;;;;6.33;2.57;;;3.00;99.90;;;;;;7720557;28;20219;-85
2023/03/29 02:57:38;;;;;;;7.27;2.53;;;3.10;99.90;;;;;;7722531;28;20274;-85
2023/03/29 03:01:25;;;;;;;6.87;2.47;;;3.10;99.90;;;;;;7721501;28;20235;-85
2023/03/29 03:05:10;;;;;;;5.90;2.70;;;3.00;99.90;;;;;;7723592;28;20196;-85
2023/03/29 03:08:56;;;;;;;8.33;2.40;;;3.00;99.90;;;;;;7722208;28;20197;-86
2023/03/29 03:12:42;;;;;;;6.13;2.87;;;3.00;99.90;;;;;;7737959;28;20240;-85
2023/03/29 03:16:27;;;;;;;10.47;3.87;;;3.00;99.90;;;;;;7723760;28;20279;-84
2023/03/29 03:20:13;;;;;;;6.13;3.23;;;3.00;99.90;;;;;;7715064;28;20197;-85
2023/03/29 03:23:59;;;;;;;5.03;2.40;;;3.00;99.90;;;;;;7720623;28;20983;-85
2023/03/29 03:27:44;;;;;;;10.07;3.57;;;3.00;99.90;;;;;;7720091;28;20200;-86
2023/03/29 03:31:32;;;;;;;8.30;3.30;;;2.90;99.90;;;;;;7722184;28;20212;-85
2023/03/29 03:35:18;;;;;;;7.90;3.50;;;2.90;99.90;;;;;;7719204;28;20188;-86
2023/03/29 03:39:05;;;;;;;8.73;3.67;;;2.90;99.90;;;;;;7734858;28;20348;-84
2023/03/29 03:42:51;;;;;;;8.60;3.77;;;3.00;99.90;;;;;;7715502;28;20217;-85
2023/03/29 03:46:37;;;;;;;8.43;3.70;;;2.90;99.90;;;;;;7719369;28;20192;-85
2023/03/29 03:50:23;;;;;;;6.97;3.40;;;2.90;99.90;;;;;;7713532;28;20204;-84
2023/03/29 03:54:09;;;;;;;10.13;3.43;;;2.90;99.90;;;;;;7717059;28;20205;-86
2023/03/29 03:57:55;;;;;;;10.53;3.93;;;2.90;99.90;;;;;;7726719;28;20225;-85
2023/03/29 04:01:44;;;;;;;7.27;3.30;;;2.90;99.90;;;;;;7721317;28;20212;-84
2023/03/29 04:05:30;;;;;;;7.30;3.40;;;2.90;99.90;;;;;;7727884;28;20193;-86
2023/03/29 04:09:16;;;;;;;8.53;3.40;;;2.90;99.90;;;;;;7722974;28;20508;-84
2023/03/29 04:13:03;;;;;;;9.67;3.70;;;2.80;99.90;;;;;;7738108;28;20299;-86
2023/03/29 04:16:49;;;;;;;7.43;3.27;;;2.80;99.90;;;;;;7726343;28;20197;-87
2023/03/29 04:20:35;;;;;;;7.63;3.40;;;2.80;99.90;;;;;;7732819;28;20216;-85
2023/03/29 04:24:22;;;;;;;8.10;3.30;;;2.80;99.90;;;;;;7735768;28;20205;-85
2023/03/29 04:28:10;;;;;;;11.07;3.27;;;2.80;99.90;;;;;;7741490;28;20307;-86
2023/03/29 04:31:56;;;;;;;6.30;3.00;;;2.80;99.90;;;;;;7724809;28;20235;-86
2023/03/29 04:35:41;;;;;;;8.60;3.07;;;2.70;99.90;;;;;;7727355;28;20204;-86
2023/03/29 04:39:32;;;;;;;6.90;2.97;;;2.60;99.90;;;;;;7726272;28;20236;-86
2023/03/29 04:43:19;;;;;;;5.23;3.30;;;2.70;99.90;;;;;;7721221;28;20290;-85
2023/03/29 04:47:04;;;;;;;10.63;3.27;;;2.60;99.90;;;;;;7708005;28;20201;-85
2023/03/29 04:50:51;;;;;;;9.43;3.30;;;2.60;99.90;;;;;;7735934;28;20763;-85
2023/03/29 04:54:37;;;;;;;8.93;3.67;;;2.60;99.90;;;;;;7726178;28;20203;-85
2023/03/29 04:58:22;;;;;;;8.87;3.60;;;2.70;99.90;;;;;;7725628;28;20217;-86
2023/03/29 05:02:08;;;;;;;8.23;3.00;;;2.60;99.90;;;;;;7725457;28;20240;-86
2023/03/29 05:05:54;;;;;;;11.50;3.60;;;2.60;99.90;;;;;;7717558;28;20231;-85
2023/03/29 05:09:40;;;;;;;8.50;3.20;;;2.60;99.90;;;;;;7728243;28;20199;-86
2023/03/29 05:13:26;;;;;;;6.73;3.30;;;2.60;99.90;;;;;;7725339;28;20283;-86
2023/03/29 05:17:11;;;;;;;5.23;2.90;;;2.60;99.90;;;;;;7727693;28;20205;-86
2023/03/29 05:20:58;;;;;;;8.50;3.27;;;2.60;99.90;;;;;;7733106;28;20224;-87
2023/03/29 05:24:43;;;;;;;8.17;3.30;;;2.50;99.90;;;;;;7735030;28;20188;-85
2023/03/29 05:28:29;;;;;;;6.47;2.97;;;2.60;99.90;;;;;;7728698;28;20207;-84
2023/03/29 05:32:15;;;;;;;7.73;3.20;;;2.60;99.90;;;;;;7706053;28;20210;-85
2023/03/29 05:36:03;;;;;;;5.87;3.30;;;2.60;99.90;;;;;;7690608;28;20193;-84
2023/03/29 05:39:49;;;;;;;9.77;3.47;;;2.60;99.90;;;;;;7690062;28;20277;-84
2023/03/29 05:43:35;;;;;;;9.37;3.87;;;2.60;99.90;;;;;;7715265;28;20201;-85
2023/03/29 05:47:20;;;;;;;6.90;3.07;;;2.70;99.90;;;;;;7715187;28;20201;-86
2023/03/29 05:51:07;;;;;;;9.70;3.50;;;2.70;99.90;;;;;;7722436;28;20236;-86
2023/03/29 05:54:52;;;;;;;12.73;3.77;;;2.60;99.90;;;;;;7731776;28;20240;-86
2023/03/29 05:58:38;;;;;;;9.80;3.60;;;2.60;99.90;;;;;;7735703;28;20279;-85
2023/03/29 06:02:25;;;;;;;11.50;3.27;;;2.60;99.90;;;;;;7720703;28;20213;-84
2023/03/29 06:06:10;;;;;;;9.73;2.97;;;2.60;99.90;;;;;;7743120;28;20204;-85
2023/03/29 06:09:56;;;;;;;10.83;3.70;;;2.80;99.90;;;;;;7734035;28;20189;-84
2023/03/29 06:13:42;;;;;;;8.47;3.20;;;2.70;99.90;;;;;;7718123;28;20244;-85
2023/03/29 06:17:28;;;;;;;7.67;3.20;;;2.60;99.90;;;;;;7724588;28;20224;-85
2023/03/29 06:21:14;;;;;;;7.63;3.33;;;2.70;99.90;;;;;;7740838;28;20242;-83
2023/03/29 06:24:59;;;;;;;10.53;4.07;;;2.70;99.90;;;;;;7738077;28;20204;-82
2023/03/29 06:28:45;;;;;;;8.90;3.40;;;2.60;99.90;;;;;;7727193;28;20284;-85
2023/03/29 06:32:33;;;;;;;8.23;3.77;;;2.70;99.90;;;;;;7731214;28;20217;-84
2023/03/29 06:36:19;;;;;;;7.80;3.57;;;2.60;99.90;;;;;;7732591;28;20248;-85
2023/03/29 06:40:05;;;;;;;9.87;3.40;;;2.70;99.90;;;;;;7724145;28;20204;-84
2023/03/29 06:43:52;;;;;;;12.87;4.30;;;2.80;99.90;;;;;;7726216;28;20256;-85
2023/03/29 06:47:39;;;;;;;7.03;3.60;;;2.80;99.90;;;;;;7721818;28;20288;-84
2023/03/29 06:51:25;;;;;;;8.60;4.10;;;2.80;99.90;;;;;;7715610;28;20608;-84
2023/03/29 06:55:11;;;;;;;6.73;3.80;;;2.70;99.90;;;;;;7717543;28;20189;-84
2023/03/29 06:58:57;;;;;;;7.37;3.97;;;2.80;99.90;;;;;;7716845;28;20213;-84
2023/03/29 07:02:44;;;;;;;10.37;3.93;;;2.90;99.90;;;;;;7716879;28;20696;-84
2023/03/29 07:06:30;;;;;;;10.40;4.40;;;2.80;99.90;;;;;;7715983;28;20196;-84
2023/03/29 07:10:16;;;;;;;10.20;4.53;;;2.80;99.90;;;;;;7724076;28;20189;-85
2023/03/29 07:14:02;;;;;;;13.27;4.57;;;2.70;99.90;;;;;;7724338;28;20199;-84
2023/03/29 07:17:48;;;;;;;14.40;4.97;;;2.80;99.90;;;;;;7716734;28;20200;-84
2023/03/29 07:21:33;;;;;;;12.57;3.87;;;2.70;99.90;;;;;;7717216;28;20656;-83
2023/03/29 07:25:21;;;;;;;10.93;4.30;;;2.60;99.90;;;;;;7749706;28;20661;-85
2023/03/29 07:29:08;;;;;;;11.00;4.30;;;2.80;99.90;;;;;;7726278;28;20582;-86
2023/03/29 07:32:54;;;;;;;9.80;3.90;;;2.80;99.90;;;;;;7740186;28;20267;-84
2023/03/29 07:36:42;;;;;;;10.80;3.97;;;2.80;99.90;;;;;;7738775;28;20215;-85
2023/03/29 07:40:28;;;;;;;11.87;4.30;;;2.70;99.90;;;;;;7701614;28;20212;-85
2023/03/29 07:44:13;;;;;;;10.03;4.50;;;2.70;99.90;;;;;;7704410;28;20204;-83
2023/03/29 07:48:00;;;;;;;11.20;4.27;;;2.70;99.90;;;;;;7725430;28;20655;-86
2023/03/29 07:51:45;;;;;;;10.10;4.20;;;2.70;99.90;;;;;;7717217;28;20212;-86
2023/03/29 07:55:31;;;;;;;10.20;4.20;;;2.70;99.90;;;;;;7718955;28;20262;-85
2023/03/29 07:59:17;;;;;;;9.37;4.20;;;2.70;99.90;;;;;;7722877;28;20699;-86
2023/03/29 08:03:02;;;;;;;10.00;4.00;;;2.70;99.90;;;;;;7741357;28;20212;-84
2023/03/29 08:06:48;;;;;;;10.30;4.30;;;2.70;99.90;;;;;;7740425;28;20255;-84
2023/03/29 08:10:36;;;;;;;10.43;3.83;;;2.70;99.90;;;;;;7746915;28;20236;-85
2023/03/29 08:14:22;;;;;;;8.40;3.80;;;2.70;99.90;;;;;;7744752;28;20661;-85
2023/03/29 08:18:08;;;;;;;8.97;3.87;;;2.80;99.90;;;;;;7746562;28;20200;-84
2023/03/29 08:21:53;;;;;;;9.90;4.17;;;2.70;99.90;;;;;;7714186;28;20348;-84
2023/03/29 08:25:39;;;;;;;10.23;3.87;;;2.80;99.90;;;;;;7693338;28;20706;-86
2023/03/29 08:29:25;;;;;;;8.33;4.50;;;2.80;99.90;;;;;;7705900;28;20200;-84
2023/03/29 08:33:11;;;;;;;7.70;4.00;;;2.80;99.90;;;;;;7723047;28;20278;-86
2023/03/29 08:36:58;;;;;;;9.23;4.57;;;2.70;99.90;;;;;;7714772;28;20193;-85
2023/03/29 08:40:47;;;;;;;9.37;4.67;;;2.80;99.90;;;;;;7715483;28;20578;-85
2023/03/29 08:45:01;;;;;;;13.23;4.73;;;2.80;99.90;;;;;;7715276;28;20283;-85
2023/03/29 08:48:57;;;;;;;15.23;5.40;;;2.90;99.90;;;;;;7736397;28;20193;-85
2023/03/29 08:52:51;;;;;;;13.70;5.30;;;2.90;99.90;;;;;;7719936;28;20641;-87
2023/03/29 08:56:39;;;;;;;11.73;5.00;;;3.00;99.90;;;;;;7726285;28;20201;-85
2023/03/29 09:00:33;;;;;;;11.13;5.60;;;3.00;99.90;;;;;;7719338;28;20220;-84
2023/03/29 09:04:24;;;;;;;9.57;5.20;;;3.10;99.90;;;;;;7719250;28;20244;-85
2023/03/29 09:08:16;;;;;;;12.33;6.13;;;3.10;99.90;;;;;;7718684;28;20188;-85
2023/03/29 09:12:13;;;;;;;11.07;5.23;;;3.20;99.90;;;;;;7719038;28;20271;-85
2023/03/29 09:16:14;;;;;;;11.17;5.37;;;3.20;99.90;;;;;;7737276;28;20654;-85
2023/03/29 09:20:00;;;;;;;12.43;6.07;;;3.20;99.90;;;;;;7735494;28;20224;-84
2023/03/29 09:24:14;;;;;;;13.97;4.97;;;3.30;99.90;;;;;;7721049;28;20228;-85
2023/03/29 09:28:13;;;;;;;12.60;5.47;;;3.30;99.90;;;;;;7745735;28;20188;-85
2023/03/29 09:32:01;;;;;;;10.73;5.80;;;3.30;99.90;;;;;;7746878;28;20226;-85
2023/03/29 09:35:56;;;;;;;12.53;6.03;;;3.40;99.90;;;;;;7749322;28;20661;-86
2023/03/29 09:39:41;;;;;;;12.70;5.97;;;3.50;99.90;;;;;;7735855;28;20219;-86
2023/03/29 09:43:34;;;;;;;12.13;5.77;;;3.40;99.90;;;;;;7748290;28;20211;-86
2023/03/29 09:47:28;;;;;;;13.57;5.97;;;3.50;99.90;;;;;;7743021;28;20176;-85
2023/03/29 09:51:15;;;;;;;13.13;6.00;;;3.50;99.90;;;;;;7718811;28;20204;-85
2023/03/29 09:55:02;;;;;;;11.43;6.03;;;3.50;99.90;;;;;;7727609;28;20235;-86
2023/03/29 09:58:48;;;;;;;12.87;5.80;;;3.50;99.90;;;;;;7720739;28;20212;-87
2023/03/29 10:02:34;;;;;;;11.90;5.97;;;3.50;99.90;;;;;;7717180;28;20212;-86
2023/03/29 10:06:23;;;;;;;11.57;6.77;;;3.60;99.90;;;;;;7717373;28;20196;-85
2023/03/29 10:10:17;;;;;;;10.13;5.97;;;3.60;99.90;;;;;;7717530;28;20640;-85
2023/03/29 10:14:19;;;;;;;11.13;6.20;;;3.70;99.90;;;;;;7759382;28;20187;-84
2023/03/29 10:18:10;;;;;;;11.67;5.40;;;3.80;99.90;;;;;;7744432;28;20205;-85
2023/03/29 10:21:59;;;;;;;13.73;7.77;;;3.80;99.90;;;;;;7717609;28;20298;-85
2023/03/29 10:25:45;;;;;;;13.40;6.80;;;4.00;99.90;;;;;;7719186;28;20216;-85
2023/03/29 10:29:41;;;;;;;9.93;6.63;;;4.00;99.90;;;;;;7732793;28;20673;-85
2023/03/29 10:33:33;;;;;;;11.43;6.27;;;4.10;99.90;;;;;;7716601;28;20212;-85
2023/03/29 10:37:20;;;;;;;11.37;6.73;;;4.10;99.90;;;;;;7716286;28;20220;-85
2023/03/29 10:41:10;;;;;;;14.00;7.30;;;4.20;99.90;;;;;;7716886;28;20208;-85
2023/03/29 10:44:58;;;;;;;12.27;7.43;;;4.30;99.90;;;;;;7717302;28;20569;-85
2023/03/29 10:49:08;;;;;;;12.43;7.90;;;4.30;99.90;;;;;;7702495;28;20690;-85
2023/03/29 10:52:54;;;;;;;13.33;8.30;;;4.30;99.90;;;;;;7688277;28;20201;-86
2023/03/29 10:56:41;;;;;;;14.23;8.20;;;4.40;99.90;;;;;;7701691;28;20193;-85
2023/03/29 11:00:56;;;;;;;15.10;9.03;;;4.40;99.90;;;;;;7739620;28;20222;-84
2023/03/29 11:05:04;;;;;;;15.23;9.07;;;4.40;99.90;;;;;;7745568;28;20657;-85
2023/03/29 11:09:01;;;;;;;14.90;8.23;;;4.40;99.90;;;;;;7715523;28;20196;-84
2023/03/29 11:13:17;;;;;;;16.00;8.20;;;4.50;99.90;;;;;;7716540;28;20566;-86
2023/03/29 11:17:16;;;;;;;14.80;8.93;;;4.50;99.90;;;;;;7731416;28;20873;-86
2023/03/29 11:21:08;;;;;;;18.17;9.17;;;4.60;99.90;;;;;;7715930;28;20213;-86
2023/03/29 11:24:56;;;;;;;14.97;9.03;;;4.60;99.90;;;;;;7736474;28;20200;-86
2023/03/29 11:29:01;;;;;;;18.30;10.17;;;4.70;99.90;;;;;;7723546;28;20817;-86
2023/03/29 11:33:21;;;;;;;18.43;9.87;;;4.70;99.90;;;;;;7732121;28;20279;-86
2023/03/29 11:37:15;;;;;;;18.90;10.83;;;4.70;99.90;;;;;;7737553;28;20188;-86
2023/03/29 11:41:23;;;;;;;20.67;11.03;;;4.70;99.90;;;;;;7732998;28;20656;-87
2023/03/29 11:45:14;;;;;;;22.70;12.40;;;4.80;99.90;;;;;;7732881;28;20227;-87
2023/03/29 11:49:28;;;;;;;20.83;10.67;;;5.00;99.90;;;;;;7724261;28;20184;-87
2023/03/29 11:53:27;;;;;;;20.10;10.80;;;5.10;99.90;;;;;;7723222;28;20239;-87
2023/03/29 11:57:13;;;;;;;18.90;10.77;;;5.30;99.90;;;;;;7721888;28;20318;-87
2023/03/29 12:01:26;;;;;;;23.43;11.00;;;5.40;99.90;;;;;;7721069;28;20219;-87
2023/03/29 12:05:29;;;;;;;20.17;11.97;;;5.50;99.90;;;;;;7721816;28;20646;-87
2023/03/29 12:09:38;;;;;;;23.73;12.77;;;5.50;99.90;;;;;;7735868;28;20272;-86
2023/03/29 12:13:30;;;;;;;24.07;12.27;;;5.60;99.90;;;;;;7734563;28;20227;-87
2023/03/29 12:17:20;;;;;;;23.90;13.90;;;5.60;99.90;;;;;;7728011;28;20220;-87
2023/03/29 12:21:13;;;;;;;26.73;12.93;;;5.60;99.90;;;;;;7753699;28;20283;-87
2023/03/29 12:25:02;;;;;;;26.87;13.00;;;5.70;99.90;;;;;;7756937;28;20212;-87
2023/03/29 12:29:06;;;;;;;24.80;13.40;;;5.80;99.90;;;;;;7756402;28;20227;-88
2023/03/29 12:33:18;;;;;;;25.03;13.27;;;5.90;99.90;;;;;;7759672;28;20298;-87
2023/03/29 12:37:20;;;;;;;25.57;12.87;;;6.00;99.90;;;;;;7758877;28;20195;-86
2023/03/29 12:41:17;;;;;;;24.50;13.10;;;6.10;99.90;;;;;;7759466;28;20204;-87
2023/03/29 12:45:04;;;;;;;22.30;12.83;;;6.10;99.90;;;;;;7758314;28;20687;-87
2023/03/29 12:49:04;;;;;;;22.17;12.90;;;6.20;99.90;;;;;;7756002;28;20682;-87
2023/03/29 12:52:50;;;;;;;21.43;13.00;;;6.30;99.90;;;;;;7756987;28;20696;-87
2023/03/29 12:56:54;;;;;;;26.30;13.73;;;6.40;99.90;;;;;;7753707;28;20605;-87
2023/03/29 13:00:41;;;;;;;24.63;13.93;;;6.60;99.90;;;;;;7755442;28;20215;-87
2023/03/29 13:04:47;;;;;;;26.53;14.40;;;6.60;99.90;;;;;;7770943;28;20184;-87
2023/03/29 13:08:41;;;;;;;23.37;14.13;;;6.70;99.90;;;;;;7755191;28;20191;-87
2023/03/29 13:12:38;;;;;;;26.90;14.43;;;6.80;99.90;;;;;;7754309;28;20241;-88
2023/03/29 13:16:33;;;;;;;24.87;14.37;;;6.80;99.90;;;;;;7753942;28;20180;-86
2023/03/29 13:20:43;;;;;;;27.13;13.43;;;6.80;99.90;;;;;;7748661;28;20222;-88
2023/03/29 13:24:48;;;;;;;25.40;13.97;;;6.80;99.90;;;;;;7766902;28;20222;-87
2023/03/29 13:28:51;;;;;;;23.43;13.03;;;6.80;99.90;;;;;;7766436;28;20274;-88
2023/03/29 13:33:10;;;;;;;28.57;13.83;;;6.90;99.90;;;;;;7747980;28;20291;-87
2023/03/29 13:37:34;;;;;;;23.83;14.60;;;6.90;99.90;;;;;;7729738;28;20663;-88
2023/03/29 13:41:38;;;;;;;22.23;13.70;;;7.00;99.90;;;;;;7717857;28;20208;-87
2023/03/29 13:45:29;;;;;;;24.80;13.73;;;7.00;99.90;;;;;;7709506;28;20211;-88
2023/03/29 13:49:26;;;;;;;27.23;14.10;;;7.00;99.90;;;;;;7712799;28;20193;-88
2023/03/29 13:53:21;;;;;;;24.13;13.10;;;7.10;99.90;;;;;;7719925;28;20208;-88
2023/03/29 13:57:07;;;;;;;25.67;13.47;;;7.10;99.90;;;;;;7717561;28;20193;-88
2023/03/29 14:01:15;;;;;;;24.63;13.30;;;7.10;99.90;;;;;;7719180;28;20208;-87
2023/03/29 14:05:04;;;;;;;21.63;12.80;;;7.20;99.90;;;;;;7746705;28;20193;-87
2023/03/29 14:08:51;;;;;;;22.67;13.07;;;7.30;99.90;;;;;;7738739;28;20197;-88
2023/03/29 14:12:37;;;;;;;24.23;13.50;;;7.30;99.90;;;;;;7708744;28;20225;-88
2023/03/29 14:16:29;;;;;;;20.63;13.03;;;7.40;99.90;;;;;;7724932;28;20226;-88
2023/03/29 14:20:15;;;;;;;22.47;12.30;;;7.40;99.90;;;;;;7722169;28;20772;-88
2023/03/29 14:24:01;;;;;;;24.17;12.13;;;7.50;99.90;;;;;;7719021;28;20858;-87
2023/03/29 14:27:47;;;;;;;22.50;13.23;;;7.50;99.90;;;;;;7718845;28;20189;-88
2023/03/29 14:31:36;;;;;;;19.93;12.23;;;7.50;99.90;;;;;;7727169;28;20220;-88
2023/03/29 14:35:30;;;;;;;20.30;11.77;;;7.50;99.90;;;;;;7737105;28;20201;-87
2023/03/29 14:39:18;;;;;;;19.40;11.63;;;7.50;99.90;;;;;;7716888;28;20503;-88
2023/03/29 14:43:07;;;;;;;20.77;11.40;;;7.60;99.90;;;;;;7713295;28;20216;-87
2023/03/29 14:46:53;;;;;;;22.13;11.97;;;7.60;99.90;;;;;;7715964;28;20200;-87
2023/03/29 14:50:40;;;;;;;19.37;11.43;;;7.60;99.90;;;;;;7714588;28;20275;-88
2023/03/29 14:54:32;;;;;;;20.37;10.57;;;7.60;99.90;;;;;;7715711;28;20203;-87
2023/03/29 14:58:29;;;;;;;19.03;11.13;;;7.70;99.90;;;;;;7712174;28;20220;-87
2023/03/29 15:02:29;;;;;;;21.83;11.73;;;7.70;99.90;;;;;;7717668;28;20573;-88
2023/03/29 15:06:15;;;;;;;18.40;11.23;;;7.70;99.90;;;;;;7723895;28;20220;-88
2023/03/29 15:10:02;;;;;;;15.83;10.37;;;7.70;99.90;;;;;;7716746;28;20193;-87
2023/03/29 15:13:52;;;;;;;18.80;10.97;;;7.80;99.90;;;;;;7718317;28;20308;-89
2023/03/29 15:17:45;;;;;;;15.77;9.83;;;7.80;99.90;;;;;;7712224;28;20256;-87
2023/03/29 15:21:33;;;;;;;15.87;10.23;;;8.10;99.90;;;;;;7717554;28;20228;-88
2023/03/29 15:25:20;;;;;;;14.47;9.33;;;8.40;99.90;;;;;;7720547;28;20205;-87
2023/03/29 15:29:13;;;;;;;19.27;10.67;;;8.80;99.90;;;;;;7730996;28;20683;-88
2023/03/29 15:33:19;;;;;;;17.47;10.03;;;9.00;99.90;;;;;;7728972;28;20223;-82
2023/03/29 15:37:06;;;;;;;15.30;9.07;;;9.20;99.90;;;;;;7732985;28;20732;-91
2023/03/29 15:40:52;;;;;;;15.00;8.97;;;9.30;99.90;;;;;;7725395;28;20216;-89
2023/03/29 15:44:38;;;;;;;15.17;9.43;;;9.40;99.90;;;;;;7733683;28;20686;-89
2023/03/29 15:48:26;;;;;;;16.07;9.80;;;9.40;99.90;;;;;;7729098;28;20189;-86
2023/03/29 15:52:12;;;;;;;16.90;9.50;;;9.40;99.90;;;;;;7724574;28;20228;-87
2023/03/29 15:56:05;;;;;;;16.93;10.87;;;9.40;99.90;;;;;;7715109;28;20245;-88
2023/03/29 15:59:52;;;;;;;20.90;10.87;;;9.50;99.90;;;;;;7741110;28;20224;-89
2023/03/29 16:03:40;;;;;;;18.23;12.00;;;9.50;99.90;;;;;;7725106;28;20220;-88
2023/03/29 16:07:29;;;;;;;21.37;11.43;;;9.50;99.90;;;;;;7731059;28;20648;-88
2023/03/29 16:11:22;;;;;;;16.20;10.87;;;9.40;99.90;;;;;;7729672;28;20298;-88
2023/03/29 16:15:15;;;;;;;19.43;11.30;;;9.40;99.90;;;;;;7721841;28;20192;-88
2023/03/29 16:19:01;;;;;;;17.23;10.40;;;9.30;99.90;;;;;;7720393;28;20713;-88
2023/03/29 16:22:47;;;;;;;19.20;11.43;;;9.30;99.90;;;;;;7728809;28;20587;-88
2023/03/29 16:26:33;;;;;;;20.07;12.67;;;9.30;99.90;;;;;;7726328;28;20578;-88
2023/03/29 16:30:19;;;;;;;22.90;14.23;;;9.30;99.90;;;;;;7717310;28;20199;-88
2023/03/29 16:34:05;;;;;;;22.53;13.87;;;9.30;99.90;;;;;;7712019;28;20200;-88
2023/03/29 16:37:50;;;;;;;21.03;13.63;;;9.30;99.90;;;;;;7715580;28;20295;-88
2023/03/29 16:41:36;;;;;;;21.47;14.10;;;9.20;99.90;;;;;;7739411;28;20208;-87
2023/03/29 16:45:22;;;;;;;17.93;12.73;;;9.20;99.90;;;;;;7729386;28;20191;-88
2023/03/29 16:49:12;;;;;;;22.73;13.43;;;9.20;99.90;;;;;;7731087;28;20260;-89
2023/03/29 16:52:58;;;;;;;19.57;13.70;;;9.10;99.90;;;;;;7713962;28;20224;-87
2023/03/29 16:56:43;;;;;;;22.93;14.37;;;9.00;99.90;;;;;;7721107;28;20255;-88
2023/03/29 17:00:32;;;;;;;21.63;13.60;;;9.00;99.90;;;;;;7726513;28;20230;-88
2023/03/29 17:04:19;;;;;;;22.60;12.93;;;9.00;99.90;;;;;;7726096;28;20643;-87
2023/03/29 17:08:06;;;;;;;20.50;12.50;;;8.90;99.90;;;;;;7720392;28;20193;-87
2023/03/29 17:11:51;;;;;;;21.00;12.63;;;8.90;99.90;;;;;;7709246;28;20216;-88
2023/03/29 17:15:38;;;;;;;19.07;12.97;;;8.90;99.90;;;;;;7724059;28;20212;-88
2023/03/29 17:19:23;;;;;;;17.97;12.47;;;8.80;99.90;;;;;;7732083;28;20578;-88
2023/03/29 17:23:09;;;;;;;19.43;12.07;;;8.80;99.90;;;;;;7725138;28;20266;-89
2023/03/29 17:26:55;;;;;;;19.77;11.83;;;8.70;99.90;;;;;;7731508;28;20241;-89
2023/03/29 17:30:43;;;;;;;17.07;10.83;;;8.70;99.90;;;;;;7726809;28;20219;-88
2023/03/29 17:34:31;;;;;;;17.00;10.70;;;8.70;99.90;;;;;;7733971;28;20192;-88
2023/03/29 17:38:18;;;;;;;16.10;11.33;;;8.70;99.90;;;;;;7716356;28;20685;-87
2023/03/29 17:42:04;;;;;;;17.97;11.10;;;8.70;99.90;;;;;;7715158;28;20204;-87
2023/03/29 17:45:52;;;;;;;17.63;10.73;;;8.70;99.90;;;;;;7731278;28;20188;-88
2023/03/29 17:49:38;;;;;;;17.00;11.03;;;8.60;99.90;;;;;;7706439;28;20187;-86
2023/03/29 17:53:24;;;;;;;15.53;10.03;;;8.50;99.90;;;;;;7764546;28;20225;-88
2023/03/29 17:57:12;;;;;;;17.20;11.50;;;8.60;99.90;;;;;;7736489;28;20184;-88
2023/03/29 18:00:57;;;;;;;16.80;10.53;;;8.60;99.90;;;;;;7724538;28;20299;-87
2023/03/29 18:04:43;;;;;;;16.47;10.10;;;8.50;99.90;;;;;;7724558;28;20185;-86
2023/03/29 18:08:30;;;;;;;16.27;10.70;;;8.50;99.90;;;;;;7708094;28;20295;-88
2023/03/29 18:12:16;;;;;;;16.87;10.53;;;8.50;99.90;;;;;;7723516;28;20209;-89
2023/03/29 18:16:05;;;;;;;14.13;9.60;;;8.50;99.90;;;;;;7724312;28;20224;-88
2023/03/29 18:19:52;;;;;;;17.37;10.93;;;8.40;99.90;;;;;;7733741;28;20217;-88
2023/03/29 18:23:39;;;;;;;14.53;9.70;;;8.40;99.90;;;;;;7741461;28;20275;-89
2023/03/29 18:27:25;;;;;;;16.60;9.53;;;8.40;99.90;;;;;;7730208;28;20560;-88
2023/03/29 18:31:12;;;;;;;15.03;9.67;;;8.30;99.90;;;;;;7727786;28;20686;-88
2023/03/29 18:34:58;;;;;;;16.43;10.30;;;8.30;99.90;;;;;;7719546;28;20196;-88
2023/03/29 18:38:43;;;;;;;17.47;10.60;;;8.30;99.90;;;;;;7732784;28;20220;-87
2023/03/29 18:42:29;;;;;;;16.30;10.33;;;8.30;99.90;;;;;;7730558;28;20830;-86
2023/03/29 18:46:15;;;;;;;18.80;10.03;;;8.20;99.90;;;;;;7727564;28;20254;-88
2023/03/29 18:50:01;;;;;;;14.93;9.97;;;8.20;99.90;;;;;;7713668;28;20200;-88
2023/03/29 18:53:47;;;;;;;18.20;10.13;;;8.20;99.90;;;;;;7715515;28;20220;-89
2023/03/29 18:57:32;;;;;;;18.10;9.50;;;8.20;99.90;;;;;;7716133;28;20267;-88
2023/03/29 19:01:18;;;;;;;20.93;10.23;;;8.20;99.90;;;;;;7709309;28;20217;-88
2023/03/29 19:05:05;;;;;;;15.10;9.17;;;8.20;99.90;;;;;;7707261;28;20185;-88
2023/03/29 19:08:52;;;;;;;16.20;9.53;;;8.20;99.90;;;;;;7715229;28;20219;-88
2023/03/29 19:12:38;;;;;;;16.80;9.97;;;8.10;99.90;;;;;;7726798;28;20271;-87
2023/03/29 19:16:24;;;;;;;14.27;9.57;;;8.10;99.90;;;;;;7720684;28;20299;-87
2023/03/29 19:20:10;;;;;;;16.77;10.13;;;8.10;99.90;;;;;;7710443;28;20247;-87
2023/03/29 19:23:59;;;;;;;15.67;10.00;;;8.00;99.90;;;;;;7712374;28;20227;-87
2023/03/29 19:27:45;;;;;;;15.67;9.47;;;8.00;99.90;;;;;;7710449;28;20207;-88
2023/03/29 19:31:34;;;;;;;13.90;9.33;;;8.00;99.90;;;;;;7720762;28;20258;-88
2023/03/29 19:35:19;;;;;;;14.40;9.30;;;8.00;99.90;;;;;;7708713;28;20204;-89
2023/03/29 19:39:05;;;;;;;16.87;9.80;;;8.00;99.90;;;;;;7710384;28;20693;-88
2023/03/29 19:42:51;;;;;;;15.37;9.40;;;8.00;99.90;;;;;;7732174;28;20213;-87
2023/03/29 19:46:37;;;;;;;16.23;9.27;;;8.00;99.90;;;;;;7751165;28;20239;-88
2023/03/29 19:50:25;;;;;;;13.00;9.03;;;8.00;99.90;;;;;;7719255;28;20283;-88
2023/03/29 19:54:12;;;;;;;13.37;8.87;;;8.00;99.90;;;;;;7720868;28;20184;-88
2023/03/29 19:57:58;;;;;;;15.03;9.40;;;8.00;99.90;;;;;;7713405;28;20215;-87